Time;durP1;ratioP1;P1;durP2;ratioP2;P2;SDS_P1;SDS_P2;PMS_P1;PMS_P2;Temp;Humidity;BMP_temperature;BMP_pressure;BME280_temperature;BME280_humidity;BME280_pressure;Samples;Min_cycle;Max_cycle;Signal;HPM_P1;HPM_P2
2024/02/21 00:00:31;;;;;;;23.95;13.23;;;10.90;99.90;;;;;;2085593;28;20051;-70
2024/02/21 00:01:32;;;;;;;23.70;12.52;;;10.80;99.90;;;;;;2084867;28;20484;-72
2024/02/21 00:02:33;;;;;;;28.02;12.93;;;10.80;99.90;;;;;;2084228;28;20072;-72
2024/02/21 00:03:33;;;;;;;27.40;12.45;;;10.80;99.90;;;;;;2084035;28;20072;-72
2024/02/21 00:04:34;;;;;;;30.25;13.25;;;10.80;99.90;;;;;;2084478;28;20441;-72
2024/02/21 00:05:35;;;;;;;25.02;12.88;;;10.80;99.90;;;;;;2085528;28;20103;-71
2024/02/21 00:06:36;;;;;;;28.98;13.23;;;10.80;99.90;;;;;;2083215;28;20029;-71
2024/02/21 00:07:36;;;;;;;24.25;12.95;;;10.80;99.90;;;;;;2085358;28;20073;-72
2024/02/21 00:08:37;;;;;;;26.80;13.13;;;10.80;99.90;;;;;;2085633;28;20819;-71
2024/02/21 00:09:37;;;;;;;22.55;12.05;;;10.80;99.90;;;;;;2083466;28;20145;-71
2024/02/21 00:10:38;;;;;;;27.05;14.35;;;10.80;99.90;;;;;;2086057;28;20096;-72
2024/02/21 00:11:38;;;;;;;25.92;13.57;;;10.80;99.90;;;;;;2086497;28;20561;-71
2024/02/21 00:12:39;;;;;;;27.58;13.68;;;10.80;99.90;;;;;;2086085;28;20033;-72
2024/02/21 00:13:39;;;;;;;27.42;13.23;;;10.80;99.90;;;;;;2084985;28;20041;-72
2024/02/21 00:14:40;;;;;;;24.27;14.65;;;10.80;99.90;;;;;;2084473;28;20033;-73
2024/02/21 00:15:41;;;;;;;23.75;12.63;;;10.80;99.90;;;;;;2083032;28;20031;-72
2024/02/21 00:16:41;;;;;;;28.05;13.85;;;10.80;99.90;;;;;;2083546;28;20034;-72
2024/02/21 00:17:43;;;;;;;25.95;13.55;;;10.80;99.90;;;;;;2082672;28;20424;-73
2024/02/21 00:18:44;;;;;;;24.98;13.85;;;10.80;99.90;;;;;;2083418;28;21029;-72
2024/02/21 00:19:44;;;;;;;24.92;12.88;;;10.80;99.90;;;;;;2085418;28;20438;-72
2024/02/21 00:20:45;;;;;;;26.98;13.48;;;10.80;99.90;;;;;;2083520;28;20032;-73
2024/02/21 00:21:45;;;;;;;29.15;13.90;;;10.80;99.90;;;;;;2085822;28;20033;-71
2024/02/21 00:22:46;;;;;;;24.17;13.65;;;10.80;99.90;;;;;;2083825;28;20112;-70
2024/02/21 00:23:47;;;;;;;25.60;13.48;;;10.80;99.90;;;;;;2084686;28;20037;-72
2024/02/21 00:24:47;;;;;;;27.77;13.57;;;10.80;99.90;;;;;;2083765;28;20108;-71
2024/02/21 00:25:48;;;;;;;26.67;14.40;;;10.80;99.90;;;;;;2083938;28;20567;-71
2024/02/21 00:26:48;;;;;;;27.23;13.40;;;10.80;99.90;;;;;;2086302;28;20124;-72
2024/02/21 00:27:49;;;;;;;26.23;13.00;;;10.80;99.90;;;;;;2084375;28;20033;-72
2024/02/21 00:28:49;;;;;;;23.58;13.98;;;10.80;99.90;;;;;;2083246;28;20053;-73
2024/02/21 00:29:50;;;;;;;27.58;13.73;;;10.80;99.90;;;;;;2083857;28;20049;-73
2024/02/21 00:30:52;;;;;;;25.73;13.23;;;10.80;99.90;;;;;;2084736;28;20075;-73
2024/02/21 00:31:53;;;;;;;22.40;13.45;;;10.80;99.90;;;;;;2085302;28;20030;-72
2024/02/21 00:32:53;;;;;;;24.23;14.10;;;10.80;99.90;;;;;;2084558;28;20053;-73
2024/02/21 00:33:54;;;;;;;26.27;13.98;;;10.80;99.90;;;;;;2087194;28;20033;-70
2024/02/21 00:34:55;;;;;;;28.23;13.07;;;10.80;99.90;;;;;;2085923;28;20070;-72
2024/02/21 00:35:55;;;;;;;27.35;12.82;;;10.80;99.90;;;;;;2082902;28;20175;-73
2024/02/21 00:36:56;;;;;;;21.45;13.57;;;10.80;99.90;;;;;;2084308;28;20053;-73
2024/02/21 00:37:57;;;;;;;26.40;14.05;;;10.80;99.90;;;;;;2083120;28;20013;-72
2024/02/21 00:38:57;;;;;;;27.33;14.45;;;10.80;99.90;;;;;;2084691;28;20116;-71
2024/02/21 00:39:58;;;;;;;21.60;12.77;;;10.80;99.90;;;;;;2085065;28;20025;-72
2024/02/21 00:40:58;;;;;;;28.10;12.70;;;10.80;99.90;;;;;;2084276;28;20104;-72
2024/02/21 00:41:59;;;;;;;26.80;13.23;;;10.80;99.90;;;;;;2087035;28;20428;-72
2024/02/21 00:42:59;;;;;;;25.08;13.13;;;10.80;99.90;;;;;;2088239;28;20013;-73
2024/02/21 00:44:10;;;;;;;29.08;14.13;;;10.80;99.90;;;;;;2084266;28;20036;-73
2024/02/21 00:45:10;;;;;;;30.48;14.43;;;10.80;99.90;;;;;;2084411;28;20107;-73
2024/02/21 00:46:11;;;;;;;25.88;13.70;;;10.80;99.90;;;;;;2085102;28;20029;-72
2024/02/21 00:47:12;;;;;;;24.85;12.90;;;10.80;99.90;;;;;;2084052;28;20029;-73
2024/02/21 00:48:12;;;;;;;23.40;12.82;;;10.80;99.90;;;;;;2086006;28;20025;-72
2024/02/21 00:49:13;;;;;;;25.20;12.13;;;10.80;99.90;;;;;;2083988;28;20047;-73
2024/02/21 00:50:13;;;;;;;24.50;13.13;;;10.80;99.90;;;;;;2084457;28;20204;-73
2024/02/21 00:51:14;;;;;;;29.30;13.52;;;10.80;99.90;;;;;;2085051;28;20017;-72
2024/02/21 00:52:14;;;;;;;23.75;12.65;;;10.80;99.90;;;;;;2082698;28;20025;-72
2024/02/21 00:53:15;;;;;;;26.88;13.75;;;10.80;99.90;;;;;;2085596;28;20033;-73
2024/02/21 00:54:16;;;;;;;25.15;13.75;;;10.80;99.90;;;;;;2083824;28;20044;-72
2024/02/21 00:55:16;;;;;;;27.92;14.45;;;10.80;99.90;;;;;;2083770;28;20033;-72
2024/02/21 00:56:17;;;;;;;27.60;14.10;;;10.80;99.90;;;;;;2082653;28;20026;-72
2024/02/21 00:57:17;;;;;;;30.85;14.85;;;10.80;99.90;;;;;;2083871;28;20029;-72
2024/02/21 00:58:18;;;;;;;22.75;13.68;;;10.80;99.90;;;;;;2084423;28;20401;-72
2024/02/21 00:59:18;;;;;;;31.13;14.38;;;10.80;99.90;;;;;;2085147;28;20060;-72
2024/02/21 01:00:19;;;;;;;27.48;13.88;;;10.80;99.90;;;;;;2085827;28;20030;-72
2024/02/21 01:01:25;;;;;;;27.15;13.98;;;10.80;99.90;;;;;;2083144;28;20397;-73
2024/02/21 01:02:25;;;;;;;28.83;13.95;;;10.80;99.90;;;;;;2085469;28;20452;-71
2024/02/21 01:03:26;;;;;;;24.77;13.32;;;10.80;99.90;;;;;;2081656;28;20056;-72
2024/02/21 01:04:26;;;;;;;25.52;13.50;;;10.80;99.90;;;;;;2085022;28;20177;-73
2024/02/21 01:05:29;;;;;;;25.90;14.35;;;10.80;99.90;;;;;;2085532;28;20021;-72
2024/02/21 01:06:29;;;;;;;25.13;13.93;;;10.80;99.90;;;;;;2084179;28;20029;-71
2024/02/21 01:07:30;;;;;;;28.67;14.65;;;10.80;99.90;;;;;;2084579;28;20021;-72
2024/02/21 01:08:30;;;;;;;26.95;13.30;;;10.80;99.90;;;;;;2083933;28;20071;-74
2024/02/21 01:09:31;;;;;;;27.98;14.20;;;10.80;99.90;;;;;;2085021;28;20474;-72
2024/02/21 01:10:31;;;;;;;22.13;13.02;;;10.80;99.90;;;;;;2084529;28;20374;-72
2024/02/21 01:11:32;;;;;;;28.65;13.90;;;10.80;99.90;;;;;;2084592;28;20029;-72
2024/02/21 01:12:32;;;;;;;26.63;13.73;;;10.80;99.90;;;;;;2083078;28;21059;-72
2024/02/21 01:13:33;;;;;;;27.38;14.20;;;10.80;99.90;;;;;;2084333;28;20095;-72
2024/02/21 01:14:33;;;;;;;26.70;14.43;;;10.80;99.90;;;;;;2082999;28;20084;-72
2024/02/21 01:15:34;;;;;;;28.85;12.82;;;10.80;99.90;;;;;;2085904;28;20033;-72
2024/02/21 01:16:34;;;;;;;26.63;13.48;;;10.80;99.90;;;;;;2081834;28;20351;-72
2024/02/21 01:17:35;;;;;;;29.85;14.02;;;10.80;99.90;;;;;;2083455;28;20033;-71
2024/02/21 01:18:39;;;;;;;27.13;15.75;;;10.80;99.90;;;;;;2084692;28;20049;-72
2024/02/21 01:19:40;;;;;;;28.20;13.80;;;10.80;99.90;;;;;;2084057;28;20517;-72
2024/02/21 01:20:40;;;;;;;33.47;14.48;;;10.80;99.90;;;;;;2084855;28;20402;-71
2024/02/21 01:21:41;;;;;;;27.88;12.85;;;10.80;99.90;;;;;;2085414;28;20037;-72
2024/02/21 01:22:41;;;;;;;30.02;14.45;;;10.80;99.90;;;;;;2083094;28;20033;-71
2024/02/21 01:23:42;;;;;;;28.27;12.90;;;10.80;99.90;;;;;;2084476;28;20023;-73
2024/02/21 01:24:42;;;;;;;31.65;13.40;;;10.80;99.90;;;;;;2083433;28;20060;-72
2024/02/21 01:25:43;;;;;;;23.20;13.10;;;10.80;99.90;;;;;;2085532;28;20025;-73
2024/02/21 01:26:44;;;;;;;25.20;13.00;;;10.80;99.90;;;;;;2083367;28;20021;-73
2024/02/21 01:27:44;;;;;;;26.60;13.82;;;10.80;99.90;;;;;;2086468;28;20022;-72
2024/02/21 01:28:45;;;;;;;30.88;14.55;;;10.80;99.90;;;;;;2085612;28;20167;-72
2024/02/21 01:29:47;;;;;;;27.30;13.88;;;10.80;99.90;;;;;;2083790;28;20025;-72
2024/02/21 01:30:48;;;;;;;28.25;13.93;;;10.80;99.90;;;;;;2085891;28;20037;-75
2024/02/21 01:31:48;;;;;;;24.35;13.23;;;10.80;99.90;;;;;;2087455;28;20092;-73
2024/02/21 01:32:49;;;;;;;32.10;15.32;;;10.80;99.90;;;;;;2086860;28;20515;-73
2024/02/21 01:33:50;;;;;;;25.80;13.73;;;10.80;99.90;;;;;;2085984;28;20040;-72
2024/02/21 01:34:51;;;;;;;20.90;12.48;;;10.80;99.90;;;;;;2084811;28;20405;-72
2024/02/21 01:35:52;;;;;;;27.40;12.65;;;10.80;99.90;;;;;;2087946;28;20472;-73
2024/02/21 01:36:53;;;;;;;26.30;13.30;;;10.80;99.90;;;;;;2087507;28;20037;-72
2024/02/21 01:37:53;;;;;;;26.60;12.65;;;10.80;99.90;;;;;;2085499;28;20501;-72
2024/02/21 01:38:54;;;;;;;26.13;12.48;;;10.80;99.90;;;;;;2084061;28;20094;-72
2024/02/21 01:39:54;;;;;;;27.30;13.13;;;10.80;99.90;;;;;;2084089;28;20041;-72
2024/02/21 01:40:56;;;;;;;26.30;12.10;;;10.80;99.90;;;;;;2085524;28;20505;-72
2024/02/21 01:41:56;;;;;;;28.98;13.27;;;10.80;99.90;;;;;;2087432;28;20084;-71
2024/02/21 01:42:57;;;;;;;28.63;13.05;;;10.80;99.90;;;;;;2086619;28;20083;-73
2024/02/21 01:43:58;;;;;;;22.98;13.00;;;10.80;99.90;;;;;;2083970;28;20022;-73
2024/02/21 01:44:59;;;;;;;26.60;12.90;;;10.80;99.90;;;;;;2086841;28;20040;-72
2024/02/21 01:46:00;;;;;;;27.42;13.55;;;10.80;99.90;;;;;;2081945;28;20032;-73
2024/02/21 01:47:01;;;;;;;28.58;13.55;;;10.80;99.90;;;;;;2085551;28;20405;-72
2024/02/21 01:48:02;;;;;;;25.27;12.68;;;10.80;99.90;;;;;;2085902;28;20021;-71
2024/02/21 01:49:02;;;;;;;24.15;12.95;;;10.80;99.90;;;;;;2083079;28;20029;-72
2024/02/21 01:50:04;;;;;;;26.60;12.93;;;10.70;99.90;;;;;;2085237;28;20021;-71
2024/02/21 01:51:05;;;;;;;21.77;12.13;;;10.70;99.90;;;;;;2085526;28;20029;-73
2024/02/21 01:52:06;;;;;;;27.55;12.80;;;10.70;99.90;;;;;;2084850;28;20028;-73
2024/02/21 01:53:07;;;;;;;27.33;12.70;;;10.70;99.90;;;;;;2085541;28;20029;-72
2024/02/21 01:54:09;;;;;;;21.65;11.88;;;10.70;99.90;;;;;;2086031;28;20036;-72
2024/02/21 01:55:13;;;;;;;31.27;13.13;;;10.70;99.90;;;;;;2088237;28;20029;-73
2024/02/21 01:56:13;;;;;;;26.35;12.90;;;10.70;99.90;;;;;;2086154;28;20025;-72
2024/02/21 01:57:14;;;;;;;21.58;11.32;;;10.80;99.90;;;;;;2085583;28;20112;-72
2024/02/21 01:58:16;;;;;;;26.10;12.25;;;10.70;99.90;;;;;;2086558;28;20492;-72
2024/02/21 01:59:18;;;;;;;26.38;12.50;;;10.80;99.90;;;;;;2084094;28;20112;-72
2024/02/21 02:00:19;;;;;;;24.08;12.70;;;10.70;99.90;;;;;;2085917;28;20021;-72
2024/02/21 02:01:20;;;;;;;28.73;13.23;;;10.70;99.90;;;;;;2087602;28;20377;-72
2024/02/21 02:02:22;;;;;;;27.60;11.90;;;10.70;99.90;;;;;;2085352;28;20033;-72
2024/02/21 02:03:22;;;;;;;26.02;13.48;;;10.70;99.90;;;;;;2087702;28;20025;-72
2024/02/21 02:04:24;;;;;;;26.30;13.13;;;10.70;99.90;;;;;;2086425;28;20104;-73
2024/02/21 02:05:25;;;;;;;23.90;12.23;;;10.70;99.90;;;;;;2084675;28;20424;-72
2024/02/21 02:06:26;;;;;;;23.77;12.05;;;10.80;99.90;;;;;;2086832;28;20022;-73
2024/02/21 02:07:26;;;;;;;22.52;11.88;;;10.70;99.90;;;;;;2084377;28;20421;-72
2024/02/21 02:08:27;;;;;;;25.48;12.60;;;10.70;99.90;;;;;;2086546;28;20448;-72
2024/02/21 02:09:27;;;;;;;24.08;11.63;;;10.70;99.90;;;;;;2084961;28;20091;-72
2024/02/21 02:10:28;;;;;;;26.42;12.98;;;10.70;99.90;;;;;;2083755;28;20441;-71
2024/02/21 02:11:29;;;;;;;22.63;12.10;;;10.70;99.90;;;;;;2084518;28;20017;-73
2024/02/21 02:12:29;;;;;;;33.50;12.93;;;10.70;99.90;;;;;;2085759;28;20048;-73
2024/02/21 02:13:30;;;;;;;21.05;11.95;;;10.70;99.90;;;;;;2085351;28;20111;-73
2024/02/21 02:14:30;;;;;;;22.65;12.18;;;10.70;99.90;;;;;;2087328;28;20083;-72
2024/02/21 02:15:45;;;;;;;26.98;13.00;;;10.70;99.90;;;;;;2086235;28;20044;-73
2024/02/21 02:16:49;;;;;;;25.52;12.27;;;10.70;99.90;;;;;;2083704;28;20029;-73
2024/02/21 02:17:50;;;;;;;24.13;12.38;;;10.70;99.90;;;;;;2085514;28;20033;-70
2024/02/21 02:18:51;;;;;;;21.17;12.13;;;10.70;99.90;;;;;;2083692;28;20030;-72
2024/02/21 02:19:51;;;;;;;27.65;12.13;;;10.70;99.90;;;;;;2085178;28;20053;-72
2024/02/21 02:20:53;;;;;;;22.52;11.90;;;10.70;99.90;;;;;;2084137;28;20033;-72
2024/02/21 02:22:00;;;;;;;23.40;11.90;;;10.70;99.90;;;;;;2086119;28;20029;-72
2024/02/21 02:23:06;;;;;;;25.13;12.30;;;10.70;99.90;;;;;;2083703;28;20021;-72
2024/02/21 02:24:07;;;;;;;23.35;12.07;;;10.70;99.90;;;;;;2085114;28;20531;-74
2024/02/21 02:25:08;;;;;;;21.52;12.40;;;10.70;99.90;;;;;;2084728;28;20041;-73
2024/02/21 02:26:09;;;;;;;23.88;12.43;;;10.70;99.90;;;;;;2085582;28;20029;-72
2024/02/21 02:27:09;;;;;;;25.92;12.52;;;10.70;99.90;;;;;;2082926;28;20121;-73
2024/02/21 02:28:10;;;;;;;24.50;12.27;;;10.70;99.90;;;;;;2085290;28;20044;-72
2024/02/21 02:29:10;;;;;;;24.38;12.70;;;10.70;99.90;;;;;;2085827;28;20087;-72
2024/02/21 02:30:11;;;;;;;26.50;13.18;;;10.80;99.90;;;;;;2085784;28;20013;-72
2024/02/21 02:31:12;;;;;;;22.23;11.38;;;10.80;99.90;;;;;;2085510;28;20064;-72
2024/02/21 02:32:13;;;;;;;23.48;11.57;;;10.70;99.90;;;;;;2083743;28;20481;-72
2024/02/21 02:33:13;;;;;;;22.10;12.13;;;10.70;99.90;;;;;;2085813;28;20033;-72
2024/02/21 02:34:14;;;;;;;28.30;12.30;;;10.70;99.90;;;;;;2083842;28;20103;-72
2024/02/21 02:35:14;;;;;;;21.20;10.98;;;10.70;99.90;;;;;;2087136;28;20386;-72
2024/02/21 02:36:15;;;;;;;25.02;12.50;;;10.70;99.90;;;;;;2086458;28;20103;-72
2024/02/21 02:37:15;;;;;;;24.98;12.43;;;10.70;99.90;;;;;;2084306;28;20645;-73
2024/02/21 02:38:16;;;;;;;22.92;11.48;;;10.70;99.90;;;;;;2085074;28;20031;-73
2024/02/21 02:39:17;;;;;;;22.83;11.98;;;10.70;99.90;;;;;;2083867;28;20033;-72
2024/02/21 02:40:20;;;;;;;22.33;11.77;;;10.70;99.90;;;;;;2086695;28;20413;-72
2024/02/21 02:41:21;;;;;;;18.88;11.18;;;10.70;99.90;;;;;;2082917;28;20021;-73
2024/02/21 02:42:21;;;;;;;24.48;12.63;;;10.70;99.90;;;;;;2086180;28;20041;-72
2024/02/21 02:43:22;;;;;;;24.67;12.60;;;10.70;99.90;;;;;;2084130;28;20064;-72
2024/02/21 02:44:22;;;;;;;19.88;11.95;;;10.70;99.90;;;;;;2084822;28;20049;-72
2024/02/21 02:45:26;;;;;;;25.90;12.35;;;10.70;99.90;;;;;;2085607;28;20025;-73
2024/02/21 02:46:26;;;;;;;23.50;12.07;;;10.70;99.90;;;;;;2084829;28;20373;-72
2024/02/21 02:47:27;;;;;;;28.67;13.20;;;10.70;99.90;;;;;;2086093;28;20025;-71
2024/02/21 02:48:27;;;;;;;23.25;11.95;;;10.70;99.90;;;;;;2085332;28;20108;-72
2024/02/21 02:49:28;;;;;;;17.73;11.95;;;10.70;99.90;;;;;;2084279;28;20029;-72
2024/02/21 02:50:28;;;;;;;23.25;12.60;;;10.70;99.90;;;;;;2085284;28;20082;-72
2024/02/21 02:51:29;;;;;;;26.13;12.25;;;10.70;99.90;;;;;;2084692;28;20013;-72
2024/02/21 02:52:29;;;;;;;27.35;12.57;;;10.60;99.90;;;;;;2085007;28;20083;-72
2024/02/21 02:53:30;;;;;;;20.20;11.80;;;10.70;99.90;;;;;;2085254;28;20482;-73
2024/02/21 02:54:30;;;;;;;23.42;11.07;;;10.60;99.90;;;;;;2084532;28;20473;-72
2024/02/21 02:55:31;;;;;;;23.55;12.25;;;10.60;99.90;;;;;;2084607;28;20025;-73
2024/02/21 02:56:31;;;;;;;26.33;12.05;;;10.60;99.90;;;;;;2085185;28;20056;-73
2024/02/21 02:57:32;;;;;;;25.33;12.35;;;10.60;99.90;;;;;;2084073;28;20083;-73
2024/02/21 02:58:34;;;;;;;22.67;11.32;;;10.60;99.90;;;;;;2084117;28;20087;-73
2024/02/21 02:59:35;;;;;;;25.13;11.73;;;10.60;99.90;;;;;;2086260;28;20036;-72
2024/02/21 03:00:36;;;;;;;23.23;10.93;;;10.60;99.90;;;;;;2085365;28;20064;-72
2024/02/21 03:01:38;;;;;;;24.67;11.88;;;10.60;99.90;;;;;;2083388;28;20154;-73
2024/02/21 03:02:40;;;;;;;21.00;11.63;;;10.60;99.90;;;;;;2085116;28;20493;-72
2024/02/21 03:03:40;;;;;;;23.48;11.07;;;10.60;99.90;;;;;;2082434;28;20377;-72
2024/02/21 03:04:41;;;;;;;22.90;11.80;;;10.60;99.90;;;;;;2083992;28;20128;-72
2024/02/21 03:05:41;;;;;;;22.17;11.85;;;10.60;99.90;;;;;;2086055;28;20033;-72
2024/02/21 03:06:42;;;;;;;25.33;12.23;;;10.60;99.90;;;;;;2085018;28;20029;-72
2024/02/21 03:07:43;;;;;;;21.48;11.93;;;10.60;99.90;;;;;;2085414;28;20029;-72
2024/02/21 03:08:44;;;;;;;23.33;11.80;;;10.60;99.90;;;;;;2086222;28;20489;-72
2024/02/21 03:09:44;;;;;;;21.65;11.35;;;10.60;99.90;;;;;;2082436;28;20104;-73
2024/02/21 03:10:45;;;;;;;22.75;12.85;;;10.60;99.90;;;;;;2085469;28;20029;-73
2024/02/21 03:11:45;;;;;;;23.02;10.63;;;10.60;99.90;;;;;;2084739;28;20067;-72
2024/02/21 03:12:46;;;;;;;27.70;12.13;;;10.60;99.90;;;;;;2085610;28;20048;-72
2024/02/21 03:13:47;;;;;;;28.40;12.68;;;10.60;99.90;;;;;;2085095;28;20036;-72
2024/02/21 03:14:47;;;;;;;30.80;12.45;;;10.60;99.90;;;;;;2086060;28;20029;-72
2024/02/21 03:15:48;;;;;;;24.85;12.05;;;10.60;99.90;;;;;;2084787;28;20029;-73
2024/02/21 03:16:51;;;;;;;24.20;11.80;;;10.60;99.90;;;;;;2085105;28;20032;-73
2024/02/21 03:17:52;;;;;;;26.30;11.95;;;10.60;99.90;;;;;;2084889;28;20119;-73
2024/02/21 03:18:52;;;;;;;21.90;11.48;;;10.60;99.90;;;;;;2084284;28;20044;-72
2024/02/21 03:19:53;;;;;;;23.67;11.70;;;10.60;99.90;;;;;;2083222;28;20703;-71
2024/02/21 03:20:54;;;;;;;26.48;13.00;;;10.60;99.90;;;;;;2085272;28;20072;-72
2024/02/21 03:21:54;;;;;;;22.40;12.02;;;10.60;99.90;;;;;;2085925;28;20567;-72
2024/02/21 03:22:55;;;;;;;25.13;11.13;;;10.60;99.90;;;;;;2084603;28;20056;-73
2024/02/21 03:23:55;;;;;;;22.73;11.38;;;10.60;99.90;;;;;;2085678;28;20060;-72
2024/02/21 03:24:56;;;;;;;20.95;10.75;;;10.60;99.90;;;;;;2083378;28;20036;-72
2024/02/21 03:25:56;;;;;;;21.17;11.52;;;10.60;99.90;;;;;;2084358;28;20057;-72
2024/02/21 03:26:58;;;;;;;24.33;11.55;;;10.60;99.90;;;;;;2085199;28;20025;-71
2024/02/21 03:27:59;;;;;;;22.42;11.23;;;10.60;99.90;;;;;;2084900;28;20059;-72
2024/02/21 03:28:59;;;;;;;29.17;11.82;;;10.60;99.90;;;;;;2085695;28;20490;-73
2024/02/21 03:30:00;;;;;;;21.00;11.80;;;10.60;99.90;;;;;;2084757;28;20029;-72
2024/02/21 03:31:01;;;;;;;22.17;10.90;;;10.60;99.90;;;;;;2085238;28;20116;-72
2024/02/21 03:32:01;;;;;;;30.30;10.77;;;10.60;99.90;;;;;;2085751;28;20112;-72
2024/02/21 03:33:02;;;;;;;27.40;11.77;;;10.60;99.90;;;;;;2084022;28;20040;-72
2024/02/21 03:34:03;;;;;;;23.10;11.85;;;10.60;99.90;;;;;;2084641;28;20090;-72
2024/02/21 03:35:04;;;;;;;24.33;12.27;;;10.60;99.90;;;;;;2083849;28;20030;-72
2024/02/21 03:36:05;;;;;;;22.17;10.43;;;10.50;99.90;;;;;;2083481;28;20451;-73
2024/02/21 03:37:05;;;;;;;24.63;11.20;;;10.50;99.90;;;;;;2084253;28;20026;-72
2024/02/21 03:38:06;;;;;;;29.13;12.13;;;10.60;99.90;;;;;;2085649;28;20106;-73
2024/02/21 03:39:09;;;;;;;24.75;11.80;;;10.60;99.90;;;;;;2083658;28;20021;-71
2024/02/21 03:40:10;;;;;;;23.67;10.82;;;10.50;99.90;;;;;;2084351;28;20104;-71
2024/02/21 03:41:10;;;;;;;21.33;10.90;;;10.50;99.90;;;;;;2083434;28;20067;-71
2024/02/21 03:42:11;;;;;;;20.23;10.77;;;10.50;99.90;;;;;;2084659;28;20030;-72
2024/02/21 03:43:11;;;;;;;20.42;9.95;;;10.60;99.90;;;;;;2084956;28;20064;-72
2024/02/21 03:44:12;;;;;;;20.33;10.18;;;10.60;99.90;;;;;;2082527;28;20035;-72
2024/02/21 03:45:12;;;;;;;23.02;11.05;;;10.60;99.90;;;;;;2086262;28;20525;-72
2024/02/21 03:46:13;;;;;;;19.88;11.02;;;10.60;99.90;;;;;;2084533;28;20052;-72
2024/02/21 03:47:14;;;;;;;26.08;12.13;;;10.50;99.90;;;;;;2083439;28;20029;-72
2024/02/21 03:48:15;;;;;;;20.05;11.45;;;10.60;99.90;;;;;;2085104;28;20037;-70
2024/02/21 03:49:15;;;;;;;20.83;10.57;;;10.60;99.90;;;;;;2084811;28;20025;-73
2024/02/21 03:50:16;;;;;;;28.45;10.63;;;10.50;99.90;;;;;;2085805;28;20530;-73
2024/02/21 03:51:16;;;;;;;22.73;10.93;;;10.60;99.90;;;;;;2085439;28;20055;-72
2024/02/21 03:52:17;;;;;;;28.50;11.20;;;10.60;99.90;;;;;;2083635;28;20032;-73
2024/02/21 03:53:17;;;;;;;19.80;10.40;;;10.60;99.90;;;;;;2086264;28;20119;-73
2024/02/21 03:54:18;;;;;;;23.90;10.48;;;10.50;99.90;;;;;;2086091;28;20052;-73
2024/02/21 03:55:19;;;;;;;22.05;11.07;;;10.60;99.90;;;;;;2084584;28;20026;-73
2024/02/21 03:56:19;;;;;;;22.80;10.48;;;10.60;99.90;;;;;;2086507;28;20543;-73
2024/02/21 03:57:20;;;;;;;24.08;10.85;;;10.60;99.90;;;;;;2082571;28;20029;-73
2024/02/21 03:58:20;;;;;;;27.25;11.70;;;10.60;99.90;;;;;;2083522;28;20040;-72
2024/02/21 03:59:22;;;;;;;23.08;11.63;;;10.60;99.90;;;;;;2087020;28;20056;-73
2024/02/21 04:00:23;;;;;;;21.55;11.05;;;10.60;99.90;;;;;;2085844;28;20021;-73
2024/02/21 04:01:24;;;;;;;27.40;11.65;;;10.60;99.90;;;;;;2085380;28;20802;-71
2024/02/21 04:02:24;;;;;;;21.67;11.63;;;10.60;99.90;;;;;;2083919;28;20033;-74
2024/02/21 04:03:25;;;;;;;23.75;10.98;;;10.60;99.90;;;;;;2083137;28;20053;-73
2024/02/21 04:04:25;;;;;;;25.08;11.13;;;10.60;99.90;;;;;;2084625;28;20513;-73
2024/02/21 04:05:26;;;;;;;24.33;11.32;;;10.60;99.90;;;;;;2084586;28;20021;-71
2024/02/21 04:06:26;;;;;;;22.75;11.60;;;10.60;99.90;;;;;;2083764;28;20026;-73
2024/02/21 04:07:27;;;;;;;23.30;11.13;;;10.60;99.90;;;;;;2086953;28;20350;-73
2024/02/21 04:08:27;;;;;;;22.67;11.30;;;10.70;99.90;;;;;;2086375;28;20033;-72
2024/02/21 04:09:28;;;;;;;18.63;10.48;;;10.70;99.90;;;;;;2084816;28;20025;-72
2024/02/21 04:10:28;;;;;;;22.42;10.75;;;10.70;99.90;;;;;;2086240;28;20021;-73
2024/02/21 04:11:29;;;;;;;29.17;10.75;;;10.70;99.90;;;;;;2083623;28;20021;-73
2024/02/21 04:12:29;;;;;;;18.48;10.25;;;10.60;99.90;;;;;;2085732;28;20032;-72
2024/02/21 04:13:30;;;;;;;21.65;10.90;;;10.60;99.90;;;;;;2084238;28;20025;-72
2024/02/21 04:14:30;;;;;;;22.42;10.32;;;10.60;99.90;;;;;;2084705;28;20057;-72
2024/02/21 04:15:31;;;;;;;29.45;11.13;;;10.60;99.90;;;;;;2085924;28;20036;-73
2024/02/21 04:16:31;;;;;;;22.20;10.45;;;10.60;99.90;;;;;;2082130;28;20428;-72
2024/02/21 04:17:32;;;;;;;20.20;10.02;;;10.60;99.90;;;;;;2083849;28;20021;-72
2024/02/21 04:18:33;;;;;;;17.65;10.23;;;10.60;99.90;;;;;;2084216;28;20037;-73
2024/02/21 04:19:33;;;;;;;22.15;10.77;;;10.60;99.90;;;;;;2085210;28;20472;-73
2024/02/21 04:20:35;;;;;;;25.55;9.95;;;10.60;99.90;;;;;;2082826;28;20025;-72
2024/02/21 04:21:35;;;;;;;23.40;11.30;;;10.60;99.90;;;;;;2082820;28;20025;-70
2024/02/21 04:22:36;;;;;;;23.13;11.05;;;10.60;99.90;;;;;;2084708;28;20039;-73
2024/02/21 04:23:36;;;;;;;19.10;10.25;;;10.60;99.90;;;;;;2085726;28;20048;-73
2024/02/21 04:24:37;;;;;;;22.13;11.07;;;10.60;99.90;;;;;;2084186;28;20029;-73
2024/02/21 04:25:38;;;;;;;20.00;10.35;;;10.60;99.90;;;;;;2084530;28;20068;-73
2024/02/21 04:26:39;;;;;;;16.95;10.55;;;10.60;99.90;;;;;;2083828;28;20053;-73
2024/02/21 04:27:39;;;;;;;26.35;11.25;;;10.60;99.90;;;;;;2084347;28;20491;-71
2024/02/21 04:28:40;;;;;;;18.88;9.77;;;10.60;99.90;;;;;;2085243;28;20099;-73
2024/02/21 04:29:44;;;;;;;19.85;10.00;;;10.60;99.90;;;;;;2082733;28;20033;-73
2024/02/21 04:30:45;;;;;;;17.95;10.05;;;10.60;99.90;;;;;;2082754;28;20034;-73
2024/02/21 04:31:45;;;;;;;22.10;10.38;;;10.60;99.90;;;;;;2085949;28;20024;-73
2024/02/21 04:32:46;;;;;;;22.05;10.07;;;10.60;99.90;;;;;;2085988;28;20055;-73
2024/02/21 04:33:46;;;;;;;21.00;11.23;;;10.60;99.90;;;;;;2087213;28;20029;-72
2024/02/21 04:34:47;;;;;;;22.75;10.77;;;10.60;99.90;;;;;;2086596;28;20041;-73
2024/02/21 04:35:47;;;;;;;24.13;10.50;;;10.60;99.90;;;;;;2087212;28;20037;-73
2024/02/21 04:36:48;;;;;;;18.25;10.13;;;10.60;99.90;;;;;;2084407;28;20118;-72
2024/02/21 04:37:49;;;;;;;24.88;10.85;;;10.60;99.90;;;;;;2083582;28;20485;-73
2024/02/21 04:38:50;;;;;;;21.70;9.43;;;10.60;99.90;;;;;;2084229;28;20026;-73
2024/02/21 04:39:50;;;;;;;19.50;10.32;;;10.60;99.90;;;;;;2085492;28;20035;-73
2024/02/21 04:40:51;;;;;;;18.67;10.15;;;10.60;99.90;;;;;;2083338;28;20036;-72
2024/02/21 04:41:52;;;;;;;21.88;10.30;;;10.60;99.90;;;;;;2085031;28;20032;-70
2024/02/21 04:42:52;;;;;;;21.58;10.82;;;10.60;99.90;;;;;;2086049;28;20054;-66
2024/02/21 04:43:53;;;;;;;17.95;9.93;;;10.60;99.90;;;;;;2084600;28;20025;-68
2024/02/21 04:44:53;;;;;;;18.52;10.10;;;10.60;99.90;;;;;;2086733;28;20032;-67
2024/02/21 04:45:54;;;;;;;17.88;10.90;;;10.60;99.90;;;;;;2084094;28;20033;-68
2024/02/21 04:46:54;;;;;;;21.60;10.38;;;10.60;99.90;;;;;;2084915;28;20017;-68
2024/02/21 04:47:55;;;;;;;21.48;11.55;;;10.60;99.90;;;;;;2086443;28;20021;-68
2024/02/21 04:48:56;;;;;;;16.77;9.77;;;10.60;99.90;;;;;;2082191;28;20151;-65
2024/02/21 04:49:56;;;;;;;18.95;10.43;;;10.60;99.90;;;;;;2085924;28;20025;-68
2024/02/21 04:50:57;;;;;;;17.08;9.10;;;10.60;99.90;;;;;;2084666;28;20031;-68
2024/02/21 04:51:57;;;;;;;18.48;9.45;;;10.60;99.90;;;;;;2085153;28;21259;-65
2024/02/21 04:52:58;;;;;;;17.42;9.38;;;10.60;99.90;;;;;;2084595;28;20121;-65
2024/02/21 04:53:59;;;;;;;16.77;9.27;;;10.60;99.90;;;;;;2083937;28;20082;-65
2024/02/21 04:54:59;;;;;;;16.35;9.98;;;10.60;99.90;;;;;;2085901;28;20625;-69
2024/02/21 04:56:00;;;;;;;20.98;9.65;;;10.60;99.90;;;;;;2088107;28;20029;-67
2024/02/21 04:57:00;;;;;;;16.05;8.88;;;10.60;99.90;;;;;;2081548;28;20035;-67
2024/02/21 04:58:02;;;;;;;17.83;9.55;;;10.60;99.90;;;;;;2094172;28;20814;-67
2024/02/21 04:59:02;;;;;;;19.90;9.50;;;10.60;99.90;;;;;;2091956;28;20038;-67
2024/02/21 05:00:03;;;;;;;21.20;9.82;;;10.60;99.90;;;;;;2085009;28;20027;-67
2024/02/21 05:01:04;;;;;;;15.20;8.48;;;10.60;99.90;;;;;;2084861;28;20037;-69
2024/02/21 05:02:04;;;;;;;22.45;8.23;;;10.60;99.90;;;;;;2084227;28;20112;-67
2024/02/21 05:03:05;;;;;;;19.35;8.52;;;10.60;99.90;;;;;;2084771;28;20358;-68
2024/02/21 05:04:06;;;;;;;16.55;8.63;;;10.70;99.90;;;;;;2087252;28;20029;-67
2024/02/21 05:05:06;;;;;;;18.17;9.23;;;10.60;99.90;;;;;;2085448;28;20033;-68
2024/02/21 05:06:07;;;;;;;18.90;9.40;;;10.60;99.90;;;;;;2086791;28;20035;-68
2024/02/21 05:07:08;;;;;;;18.55;9.02;;;10.60;99.90;;;;;;2085460;28;20032;-65
2024/02/21 05:08:10;;;;;;;20.05;9.20;;;10.60;99.90;;;;;;2086494;28;20108;-66
2024/02/21 05:09:10;;;;;;;20.45;8.05;;;10.70;99.90;;;;;;2086408;28;20029;-68